KHOB/HOB METAR and TAF weather

Enter ICAO airport designator
Station Type Date Time Source
KHOB METAR 2019/08/24 06:55 UTC NOAA

KHOB 240655Z AUTO 12003KT 10SM CLR 21/15 A3004 RMK AO2


Station Type Date Time Source
KHOB Decoded METAR 2019/08/24 06:55 UTC NOAA

Station name not available
Aug 24, 2019 - 02:55 AM EDT / 2019.08.24 0655 UTC
Wind: from the ESE (120 degrees) at 3 MPH (3 KT):0
Visibility: 10 mile(s):0
Sky conditions: clear
Temperature: 69 F (21 C)
Dew Point: 59 F (15 C)
Relative Humidity: 68%
Pressure (altimeter): 30.04 in. Hg (1017 hPa)
ob: KHOB 240655Z AUTO 12003KT 10SM CLR 21/15 A3004 RMK AO2
cycle: 7

Station Type Date Time Source
KHOB TAF 2019/08/24 06:42 UTC NOAA

TAF KHOB 240539Z 2406/2506 14010KT P6SM SCT250

Example: see airport list